Time;durP1;ratioP1;P1;durP2;ratioP2;P2;SDS_P1;SDS_P2;PMS_P1;PMS_P2;Temp;Humidity;BMP_temperature;BMP_pressure;BME280_temperature;BME280_humidity;BME280_pressure;Samples;Min_cycle;Max_cycle;Signal;HPM_P1;HPM_P2
2022/04/10 00:00:22;;;;;;;16.15;5.15;;;;;;;-144.64;100.00;62968.41;5081680;28;20047;-62
2022/04/10 00:02:47;;;;;;;14.73;5.43;;;;;;;-144.64;100.00;62968.41;5082518;28;20039;-62
2022/04/10 00:05:13;;;;;;;18.23;5.15;;;;;;;-144.64;100.00;62968.41;5082411;28;20039;-62
2022/04/10 00:07:38;;;;;;;25.58;6.15;;;;;;;-144.64;100.00;62968.41;5082355;28;20063;-62
2022/04/10 00:10:05;;;;;;;27.58;6.03;;;;;;;-144.64;100.00;62968.41;5082593;28;20812;-62
2022/04/10 00:12:33;;;;;;;15.35;5.65;;;;;;;-144.64;100.00;62968.41;5080619;28;20117;-62
2022/04/10 00:14:58;;;;;;;18.73;5.53;;;;;;;-144.64;100.00;62968.41;5080699;28;20043;-64
2022/04/10 00:17:24;;;;;;;20.48;5.93;;;;;;;-144.64;100.00;62968.41;5082145;28;20491;-63
2022/04/10 00:19:49;;;;;;;18.83;6.03;;;;;;;-144.64;100.00;62968.41;5080194;28;20052;-63
2022/04/10 00:22:15;;;;;;;18.48;5.88;;;;;;;-144.64;100.00;62968.41;5081605;28;20039;-63
2022/04/10 00:24:40;;;;;;;17.50;5.80;;;;;;;-144.64;100.00;62968.41;5081681;28;20476;-63
2022/04/10 00:27:06;;;;;;;20.58;5.97;;;;;;;-144.64;100.00;62968.41;5081489;28;20044;-62
2022/04/10 00:29:32;;;;;;;14.68;6.10;;;;;;;-144.64;100.00;62968.41;5081494;28;20648;-63
2022/04/10 00:31:57;;;;;;;20.52;6.15;;;;;;;-144.64;100.00;62968.41;5081407;28;20032;-63
2022/04/10 00:34:23;;;;;;;27.85;5.70;;;;;;;-144.64;100.00;62968.41;5079861;28;21020;-62
2022/04/10 00:36:48;;;;;;;21.92;6.07;;;;;;;-144.64;100.00;62968.41;5080092;28;20039;-66
2022/04/10 00:39:13;;;;;;;14.70;5.47;;;;;;;-144.64;100.00;62968.41;5079076;28;20039;-64
2022/04/10 00:41:39;;;;;;;23.42;5.70;;;;;;;-144.64;100.00;62968.41;5080674;28;20036;-63
2022/04/10 00:44:11;;;;;;;13.88;5.43;;;;;;;-144.64;100.00;62968.41;5079157;28;20438;-63
2022/04/10 00:46:38;;;;;;;21.38;6.40;;;;;;;-144.64;100.00;62968.41;5079415;28;20074;-63
2022/04/10 00:49:05;;;;;;;19.20;5.20;;;;;;;-144.64;100.00;62968.41;5080814;28;20051;-63
2022/04/10 00:51:41;;;;;;;17.08;5.38;;;;;;;-144.64;100.00;62968.41;5079369;28;20159;-62
2022/04/10 00:54:24;;;;;;;15.73;6.13;;;;;;;-144.64;100.00;62968.41;5080173;28;20036;-62
2022/04/10 00:56:50;;;;;;;19.95;6.03;;;;;;;-144.64;100.00;62968.41;5079808;28;20078;-62
2022/04/10 00:59:16;;;;;;;18.35;6.90;;;;;;;-144.64;100.00;62968.41;5079854;28;20028;-63
2022/04/10 01:01:44;;;;;;;26.30;6.20;;;;;;;-144.64;100.00;62968.41;5079882;28;20792;-62
2022/04/10 01:04:12;;;;;;;22.27;6.25;;;;;;;-144.64;100.00;62968.41;5059848;28;20036;-62
2022/04/10 01:06:39;;;;;;;24.50;5.88;;;;;;;-144.64;100.00;62968.41;5059081;28;20082;-65
2022/04/10 01:09:06;;;;;;;23.05;5.13;;;;;;;-144.64;100.00;62968.41;5059367;28;20094;-62
2022/04/10 01:11:33;;;;;;;18.48;5.10;;;;;;;-144.64;100.00;62968.41;5061178;28;20043;-63
2022/04/10 01:13:59;;;;;;;14.10;5.95;;;;;;;-144.64;100.00;62968.41;5059034;28;20080;-62
2022/04/10 01:16:28;;;;;;;14.55;5.50;;;;;;;-144.64;100.00;62968.41;5059450;28;20047;-62
2022/04/10 01:18:55;;;;;;;16.45;5.32;;;;;;;-144.64;100.00;62968.41;5059830;28;20055;-62
2022/04/10 01:21:24;;;;;;;16.50;5.03;;;;;;;-144.64;100.00;62968.41;5058817;28;20037;-62
2022/04/10 01:23:54;;;;;;;14.65;5.63;;;;;;;-144.64;100.00;62968.41;5059014;28;20076;-62
2022/04/10 01:26:20;;;;;;;22.92;5.53;;;;;;;-144.64;100.00;62968.41;5042651;28;20497;-65
2022/04/10 01:28:57;;;;;;;22.27;5.47;;;;;;;-144.64;100.00;62968.41;5058723;28;20449;-62
2022/04/10 01:31:23;;;;;;;16.50;4.82;;;;;;;-144.64;100.00;62968.41;5057686;28;20564;-62
2022/04/10 01:33:50;;;;;;;29.63;6.20;;;;;;;-144.64;100.00;62968.41;5058162;28;20076;-62
2022/04/10 01:36:16;;;;;;;15.70;5.72;;;;;;;-144.64;100.00;62968.41;5058503;28;20037;-62
2022/04/10 01:38:44;;;;;;;18.48;4.80;;;;;;;-144.64;100.00;62968.41;5066487;28;20484;-62
2022/04/10 01:41:13;;;;;;;21.50;4.70;;;;;;;-144.64;100.00;62968.41;5079088;28;20124;-62
2022/04/10 01:43:46;;;;;;;12.23;4.78;;;;;;;-144.64;100.00;62968.41;5079386;28;20778;-62
2022/04/10 01:46:12;;;;;;;19.05;4.65;;;;;;;-144.64;100.00;62968.41;5079219;28;20043;-62
2022/04/10 01:48:38;;;;;;;16.05;5.53;;;;;;;-144.64;100.00;62968.41;5073358;22;20868;-60
2022/04/10 01:51:03;;;;;;;21.60;5.93;;;;;;;-144.64;100.00;62968.41;5058421;28;20051;-60
2022/04/10 01:53:29;;;;;;;16.48;4.85;;;;;;;-144.64;100.00;62968.41;5055594;28;20082;-60
2022/04/10 01:55:55;;;;;;;23.08;4.97;;;;;;;-144.64;100.00;62968.41;5056064;28;20127;-61
2022/04/10 01:58:20;;;;;;;21.58;5.13;;;;;;;-144.64;100.00;62968.41;5055698;28;20039;-61
2022/04/10 02:00:46;;;;;;;11.82;4.80;;;;;;;-144.64;100.00;62968.41;5054598;28;20141;-61
2022/04/10 02:03:11;;;;;;;16.30;4.63;;;;;;;-144.64;100.00;62968.41;5058387;28;20072;-61
2022/04/10 02:05:36;;;;;;;18.20;4.25;;;;;;;-144.64;100.00;62968.41;5060627;28;20044;-61
2022/04/10 02:08:02;;;;;;;14.82;4.60;;;;;;;-144.64;100.00;62968.41;5058412;28;20044;-61
2022/04/10 02:10:27;;;;;;;21.95;5.72;;;;;;;-144.64;100.00;62968.41;5060480;28;20071;-60
2022/04/10 02:12:54;;;;;;;18.02;6.28;;;;;;;-144.64;100.00;62968.41;5043796;28;20044;-60
2022/04/10 02:15:20;;;;;;;16.65;6.80;;;;;;;-144.64;100.00;62968.41;5059814;28;20386;-61
2022/04/10 02:17:45;;;;;;;15.75;5.82;;;;;;;-144.64;100.00;62968.41;5059539;28;20033;-61
2022/04/10 02:20:11;;;;;;;14.77;7.35;;;;;;;-144.64;100.00;62968.41;5061401;28;20853;-61
2022/04/10 02:22:36;;;;;;;28.15;6.65;;;;;;;-144.64;100.00;62968.41;5043076;28;20044;-61
2022/04/10 02:25:02;;;;;;;25.10;7.35;;;;;;;-144.64;100.00;62968.41;5061209;28;20059;-61
2022/04/10 02:27:28;;;;;;;26.13;7.43;;;;;;;-144.64;100.00;62968.41;5059585;28;20130;-63
2022/04/10 02:29:54;;;;;;;27.15;7.13;;;;;;;-144.64;100.00;62968.41;5059440;28;20369;-61
2022/04/10 02:32:19;;;;;;;17.35;6.90;;;;;;;-144.64;100.00;62968.41;5059243;28;20051;-61
2022/04/10 02:34:44;;;;;;;22.77;8.10;;;;;;;-144.64;100.00;62968.41;5059573;28;20850;-61
2022/04/10 02:37:10;;;;;;;19.33;7.68;;;;;;;-144.64;100.00;62968.41;5059711;28;20032;-61
2022/04/10 02:39:36;;;;;;;18.77;7.03;;;;;;;-144.64;100.00;62968.41;5076956;28;20152;-61
2022/04/10 02:42:01;;;;;;;19.17;7.63;;;;;;;-144.64;100.00;62968.41;5059801;28;20499;-61
2022/04/10 02:44:27;;;;;;;24.13;8.13;;;;;;;-144.64;100.00;62968.41;5059932;28;20040;-61
2022/04/10 02:46:53;;;;;;;22.48;7.88;;;;;;;-144.64;100.00;62968.41;5071625;28;20048;-61
2022/04/10 02:49:19;;;;;;;24.13;8.93;;;;;;;-144.64;100.00;62968.41;5080222;28;20500;-60
2022/04/10 02:51:47;;;;;;;22.30;8.60;;;;;;;-144.64;100.00;62968.41;5081612;28;20372;-61
2022/04/10 02:54:13;;;;;;;22.15;8.80;;;;;;;-144.64;100.00;62968.41;5079129;28;20035;-61
2022/04/10 02:56:39;;;;;;;24.92;9.65;;;;;;;-144.64;100.00;62968.41;5079486;28;20047;-61
2022/04/10 02:59:04;;;;;;;22.55;7.25;;;;;;;-144.64;100.00;62968.41;5081700;28;20028;-60
2022/04/10 03:01:30;;;;;;;28.27;9.20;;;;;;;-144.64;100.00;62968.41;5080394;28;20040;-61
2022/04/10 03:03:55;;;;;;;30.20;9.90;;;;;;;-144.64;100.00;62968.41;5079489;28;20036;-61
2022/04/10 03:06:22;;;;;;;36.03;9.20;;;;;;;-144.64;100.00;62968.41;5078939;28;20062;-61
2022/04/10 03:08:48;;;;;;;24.85;10.10;;;;;;;-144.64;100.00;62968.41;5079623;28;20044;-62
2022/04/10 03:11:14;;;;;;;21.48;8.15;;;;;;;-144.64;100.00;62968.41;5078981;28;20044;-61
2022/04/10 03:13:40;;;;;;;21.63;7.95;;;;;;;-144.64;100.00;62968.41;5076834;28;20527;-63
2022/04/10 03:16:06;;;;;;;28.50;8.50;;;;;;;-144.64;100.00;62968.41;5077828;28;20040;-61
2022/04/10 03:18:32;;;;;;;22.60;9.13;;;;;;;-144.64;100.00;62968.41;5079737;28;20697;-62
2022/04/10 03:20:57;;;;;;;27.85;8.35;;;;;;;-144.64;100.00;62968.41;5073793;28;20401;-60
2022/04/10 03:23:24;;;;;;;20.52;9.18;;;;;;;-144.64;100.00;62968.41;5058302;28;20040;-59
2022/04/10 03:25:50;;;;;;;22.50;8.95;;;;;;;-144.64;100.00;62968.41;5059426;28;20038;-62
2022/04/10 03:28:15;;;;;;;20.35;9.20;;;;;;;-144.64;100.00;62968.41;5058630;28;20033;-61
2022/04/10 03:30:42;;;;;;;21.45;9.85;;;;;;;-144.64;100.00;62968.41;5058841;28;20040;-61
2022/04/10 03:33:07;;;;;;;29.50;9.77;;;;;;;-144.64;100.00;62968.41;5058841;28;20037;-64
2022/04/10 03:35:33;;;;;;;21.75;9.00;;;;;;;-144.64;100.00;62968.41;5058775;28;20044;-61
2022/04/10 03:38:02;;;;;;;26.75;8.68;;;;;;;-144.64;100.00;62968.41;5061508;28;20360;-60
2022/04/10 03:40:28;;;;;;;25.17;10.65;;;;;;;-144.64;100.00;62968.41;5078502;28;20656;-61
2022/04/10 03:42:53;;;;;;;21.83;8.88;;;;;;;-144.64;100.00;62968.41;5078664;28;20519;-60
2022/04/10 03:45:19;;;;;;;26.38;9.70;;;;;;;-144.64;100.00;62968.41;5078730;28;20071;-60
2022/04/10 03:47:47;;;;;;;33.85;10.07;;;;;;;-144.64;100.00;62968.41;5059257;28;20052;-60
2022/04/10 03:50:12;;;;;;;26.27;9.70;;;;;;;-144.64;100.00;62968.41;5060168;28;20041;-60
2022/04/10 03:52:39;;;;;;;26.10;10.02;;;;;;;-144.64;100.00;62968.41;5057189;28;20417;-61
2022/04/10 03:55:05;;;;;;;37.60;9.60;;;;;;;-144.64;100.00;62968.41;5057905;28;20055;-61
2022/04/10 03:57:31;;;;;;;22.98;8.50;;;;;;;-144.64;100.00;62968.41;5058942;28;20044;-60
2022/04/10 04:00:00;;;;;;;25.02;9.23;;;;;;;-144.64;100.00;62968.41;5058334;28;20921;-60
2022/04/10 04:02:27;;;;;;;20.52;8.07;;;;;;;-144.64;100.00;62968.41;5058261;28;20499;-61
2022/04/10 04:04:53;;;;;;;38.15;8.88;;;;;;;-144.64;100.00;62968.41;5057819;28;20036;-60
2022/04/10 04:07:20;;;;;;;27.20;8.35;;;;;;;-144.64;100.00;62968.41;5057887;28;20051;-61
2022/04/10 04:09:45;;;;;;;30.95;8.30;;;;;;;-144.64;100.00;62968.41;5058376;28;20767;-61
2022/04/10 04:12:11;;;;;;;26.73;7.90;;;;;;;-144.64;100.00;62968.41;5060239;28;20032;-60
2022/04/10 04:14:37;;;;;;;23.98;7.70;;;;;;;-144.64;100.00;62968.41;5059302;28;20861;-61
2022/04/10 04:17:03;;;;;;;18.35;6.60;;;;;;;-144.64;100.00;62968.41;5058760;28;20041;-61
2022/04/10 04:19:29;;;;;;;17.80;6.53;;;;;;;-144.64;100.00;62968.41;5058340;28;20035;-64
2022/04/10 04:21:55;;;;;;;18.67;6.75;;;;;;;-144.64;100.00;62968.41;5068483;28;20082;-61
2022/04/10 04:24:20;;;;;;;22.00;6.30;;;;;;;-144.64;100.00;62968.41;5057730;28;20112;-61
2022/04/10 04:26:46;;;;;;;28.75;7.63;;;;;;;-144.64;100.00;62968.41;5057414;28;20622;-60
2022/04/10 04:29:14;;;;;;;26.05;7.00;;;;;;;-144.64;100.00;62968.41;5074540;28;20068;-61
2022/04/10 04:31:39;;;;;;;19.85;6.05;;;;;;;-144.64;100.00;62968.41;5075535;28;20047;-60
2022/04/10 04:34:07;;;;;;;17.20;6.25;;;;;;;-144.64;100.00;62968.41;5040538;28;20783;-61
2022/04/10 04:36:33;;;;;;;27.98;5.97;;;;;;;-144.64;100.00;62968.41;5076632;28;20039;-60
2022/04/10 04:38:58;;;;;;;17.08;5.35;;;;;;;-144.64;100.00;62968.41;5068308;28;20056;-60
2022/04/10 04:41:24;;;;;;;22.42;6.03;;;;;;;-144.64;100.00;62968.41;5078397;28;20499;-60
2022/04/10 04:43:50;;;;;;;18.17;6.03;;;;;;;-144.64;100.00;62968.41;5077694;28;20135;-61
2022/04/10 04:46:16;;;;;;;19.90;6.97;;;;;;;-144.64;100.00;62968.41;5076377;28;20742;-61
2022/04/10 04:48:41;;;;;;;15.75;6.00;;;;;;;-144.64;100.00;62968.41;5077230;28;20084;-61
2022/04/10 04:51:13;;;;;;;18.40;6.78;;;;;;;-144.64;100.00;62968.41;5076331;28;20296;-60
2022/04/10 04:53:39;;;;;;;13.48;5.40;;;;;;;-144.64;100.00;62968.41;5076643;28;20036;-60
2022/04/10 04:56:04;;;;;;;12.70;5.65;;;;;;;-144.64;100.00;62968.41;5056521;28;20067;-61
2022/04/10 04:58:34;;;;;;;17.73;5.78;;;;;;;-144.64;100.00;62968.41;5056411;28;20509;-61
2022/04/10 05:00:59;;;;;;;18.88;5.57;;;;;;;-144.64;100.00;62968.41;5059181;28;20098;-60
2022/04/10 05:03:25;;;;;;;13.18;5.47;;;;;;;-144.64;100.00;62968.41;5074269;28;20090;-61
2022/04/10 05:05:51;;;;;;;17.17;6.20;;;;;;;-144.64;100.00;62968.41;5073936;28;20036;-60
2022/04/10 05:08:22;;;;;;;18.20;6.85;;;;;;;-144.64;100.00;62968.41;5057624;28;20036;-60
2022/04/10 05:10:49;;;;;;;15.70;5.88;;;;;;;-144.64;100.00;62968.41;5058112;28;20036;-61
2022/04/10 05:13:16;;;;;;;20.98;5.78;;;;;;;-144.64;100.00;62968.41;5074668;28;20048;-61
2022/04/10 05:15:42;;;;;;;13.88;5.20;;;;;;;-144.64;100.00;62968.41;5081746;28;20068;-60
2022/04/10 05:18:07;;;;;;;13.80;5.60;;;;;;;-144.64;100.00;62968.41;5091403;28;20516;-60
2022/04/10 05:20:37;;;;;;;18.10;5.30;;;;;;;-144.64;100.00;62968.41;5061525;28;20180;-61
2022/04/10 05:23:10;;;;;;;15.05;4.75;;;;;;;-144.64;100.00;62968.41;5063660;28;20946;-61
2022/04/10 05:25:38;;;;;;;13.05;5.18;;;;;;;-144.64;100.00;62968.41;5079883;28;20051;-60
2022/04/10 05:28:05;;;;;;;12.77;5.28;;;;;;;-144.64;100.00;62968.41;5078735;28;20152;-60
2022/04/10 05:30:31;;;;;;;21.55;6.00;;;;;;;-144.64;100.00;62968.41;5077735;28;20498;-62
2022/04/10 05:32:57;;;;;;;13.82;5.43;;;;;;;-144.64;100.00;62968.41;5078037;28;20024;-61
2022/04/10 05:35:22;;;;;;;24.88;5.78;;;;;;;-144.64;100.00;62968.41;5062128;28;20808;-61
2022/04/10 05:37:48;;;;;;;15.95;6.10;;;;;;;-144.64;100.00;62968.41;5060084;28;20071;-61
2022/04/10 05:40:16;;;;;;;12.88;5.55;;;;;;;-144.64;100.00;62968.41;5061046;28;20133;-61
2022/04/10 05:42:46;;;;;;;15.40;5.03;;;;;;;-144.64;100.00;62968.41;5060967;28;20036;-61
2022/04/10 05:45:12;;;;;;;17.48;6.32;;;;;;;-144.64;100.00;62968.41;5062270;28;20078;-60
2022/04/10 05:47:43;;;;;;;18.65;5.88;;;;;;;-144.64;100.00;62968.41;5079693;28;20772;-61
2022/04/10 05:50:10;;;;;;;15.85;6.53;;;;;;;-144.64;100.00;62968.41;5076122;28;20136;-61
2022/04/10 05:52:37;;;;;;;13.82;5.95;;;;;;;-144.64;100.00;62968.41;5066291;28;20703;-61
2022/04/10 05:55:04;;;;;;;14.77;6.07;;;;;;;-144.64;100.00;62968.41;5082044;28;20129;-61
2022/04/10 05:57:30;;;;;;;18.05;6.05;;;;;;;-144.64;100.00;62968.41;5081093;28;20141;-60
2022/04/10 05:59:56;;;;;;;21.38;5.30;;;;;;;-144.64;100.00;62968.41;5080998;28;20066;-61
2022/04/10 06:02:21;;;;;;;25.20;6.75;;;;;;;-144.64;100.00;62968.41;5080875;28;20089;-61
2022/04/10 06:04:47;;;;;;;18.23;6.70;;;;;;;-144.64;100.00;62968.41;5081195;28;20040;-61
2022/04/10 06:07:14;;;;;;;23.23;7.45;;;;;;;-144.64;100.00;62968.41;5079845;28;20036;-61
2022/04/10 06:09:40;;;;;;;15.80;6.70;;;;;;;-144.64;100.00;62968.41;5079633;28;20797;-61
2022/04/10 06:12:06;;;;;;;13.38;6.22;;;;;;;-144.64;100.00;62968.41;5079940;28;20048;-61
2022/04/10 06:14:39;;;;;;;17.08;5.80;;;;;;;-144.64;100.00;62968.41;5079646;28;20052;-61
2022/04/10 06:17:07;;;;;;;18.63;6.78;;;;;;;-144.64;100.00;62968.41;5079616;28;20802;-61
2022/04/10 06:19:34;;;;;;;21.23;6.68;;;;;;;-144.64;100.00;62968.41;5078774;28;20036;-61
2022/04/10 06:21:59;;;;;;;23.65;6.82;;;;;;;-144.64;100.00;62968.41;5064634;28;20386;-61
2022/04/10 06:24:27;;;;;;;20.20;6.72;;;;;;;-144.64;100.00;62968.41;5059366;28;20459;-62
2022/04/10 06:26:53;;;;;;;16.50;6.50;;;;;;;-144.64;100.00;62968.41;5059210;28;20035;-61
2022/04/10 06:29:21;;;;;;;16.42;6.40;;;;;;;-144.64;100.00;62968.41;5058711;28;20068;-62
2022/04/10 06:31:51;;;;;;;26.00;7.05;;;;;;;-144.64;100.00;62968.41;5058832;28;20044;-62
2022/04/10 06:34:18;;;;;;;15.15;7.63;;;;;;;-144.64;100.00;62968.41;5061888;28;20875;-62
2022/04/10 06:36:44;;;;;;;20.02;7.28;;;;;;;-144.64;100.00;62968.41;5076656;28;20028;-61
2022/04/10 06:39:10;;;;;;;18.17;6.30;;;;;;;-144.64;100.00;62968.41;5076284;28;20552;-61
2022/04/10 06:41:36;;;;;;;13.18;6.43;;;;;;;-144.64;100.00;62968.41;5078408;28;20032;-62
2022/04/10 06:44:07;;;;;;;19.65;6.60;;;;;;;-144.64;100.00;62968.41;5079962;28;20047;-62
2022/04/10 06:46:45;;;;;;;16.13;6.35;;;;;;;-144.64;100.00;62968.41;5074343;28;20032;-62
2022/04/10 06:49:22;;;;;;;12.98;6.47;;;;;;;-144.64;100.00;62968.41;5089756;28;20036;-62
2022/04/10 06:51:47;;;;;;;14.63;6.03;;;;;;;-144.64;100.00;62968.41;5072966;28;20493;-61
2022/04/10 06:54:18;;;;;;;14.82;7.05;;;;;;;-144.64;100.00;62968.41;5079542;28;20405;-61
2022/04/10 06:56:44;;;;;;;12.07;5.97;;;;;;;-144.64;100.00;62968.41;5073761;23;20056;-60
2022/04/10 06:59:10;;;;;;;15.98;7.00;;;;;;;-144.64;100.00;62968.41;5110529;27;20077;-61
2022/04/10 07:01:36;;;;;;;18.88;6.28;;;;;;;-144.64;100.00;62968.41;5111467;27;20036;-62
2022/04/10 07:07:49;;;;;;;14.70;5.28;;;;;;;-144.64;100.00;62968.41;5093839;28;20688;-61
2022/04/10 07:10:16;;;;;;;13.57;5.55;;;;;;;-144.64;100.00;62968.41;5062881;22;20056;-61
2022/04/10 07:12:42;;;;;;;16.92;5.32;;;;;;;-144.64;100.00;62968.41;5039722;28;20053;-62
2022/04/10 07:15:08;;;;;;;21.00;5.63;;;;;;;-144.64;100.00;62968.41;5051663;22;20639;-61
2022/04/10 07:17:33;;;;;;;13.90;5.47;;;;;;;-144.64;100.00;62968.41;5047162;28;20044;-62
2022/04/10 07:20:03;;;;;;;11.90;5.05;;;;;;;-144.64;100.00;62968.41;5035751;28;20413;-61
2022/04/10 07:25:15;;;;;;;23.27;3.42;;;;;;;-144.64;100.00;62968.41;5052969;28;20689;-61
2022/04/10 07:27:42;;;;;;;9.23;2.80;;;;;;;-144.64;100.00;62968.41;5033018;28;20037;-62
2022/04/10 07:30:23;;;;;;;9.07;3.47;;;;;;;-144.64;100.00;62968.41;5037812;28;20037;-61
2022/04/10 07:32:56;;;;;;;3.63;2.25;;;;;;;-144.64;100.00;62968.41;5038468;28;20854;-61
2022/04/10 07:35:25;;;;;;;14.95;3.80;;;;;;;-144.64;100.00;62968.41;5035673;28;20047;-61
2022/04/10 07:38:17;;;;;;;10.15;2.92;;;;;;;-144.64;100.00;62968.41;5050531;28;20047;-61
2022/04/10 07:40:43;;;;;;;8.55;2.75;;;;;;;-144.64;100.00;62968.41;5041636;28;20044;-61
2022/04/10 07:43:13;;;;;;;9.70;2.72;;;;;;;-144.64;100.00;62968.41;5054564;28;20041;-61
2022/04/10 07:48:30;;;;;;;7.35;2.00;;;;;;;-144.64;100.00;62968.41;5034710;28;20769;-61
2022/04/10 07:50:57;;;;;;;5.75;1.98;;;;;;;-144.64;100.00;62968.41;5024311;28;20038;-61
2022/04/10 07:53:28;;;;;;;7.38;2.40;;;;;;;-144.64;100.00;62968.41;5050973;28;20854;-61
2022/04/10 07:55:57;;;;;;;8.85;2.47;;;;;;;-144.64;100.00;62968.41;5035725;28;20482;-61
2022/04/10 07:58:23;;;;;;;4.95;2.05;;;;;;;-144.64;100.00;62968.41;5032052;28;20045;-61
2022/04/10 08:00:49;;;;;;;5.45;1.92;;;;;;;-144.64;100.00;62968.41;5032419;28;20048;-61
2022/04/10 08:03:14;;;;;;;8.88;1.90;;;;;;;-144.64;100.00;62968.41;5035601;28;20033;-62
2022/04/10 08:05:53;;;;;;;10.20;2.60;;;;;;;-144.64;100.00;62968.41;5031744;28;20041;-61
2022/04/10 08:08:24;;;;;;;7.38;1.90;;;;;;;-144.64;100.00;62968.41;5038152;28;20158;-61
2022/04/10 08:10:51;;;;;;;7.55;2.15;;;;;;;-144.64;100.00;62968.41;5034754;28;20477;-61
2022/04/10 08:13:16;;;;;;;6.20;1.48;;;;;;;-144.64;100.00;62968.41;5034158;28;20779;-61
2022/04/10 08:15:41;;;;;;;3.25;1.60;;;;;;;-144.64;100.00;62968.41;5024241;28;20057;-62
2022/04/10 08:18:08;;;;;;;9.55;2.25;;;;;;;-144.64;100.00;62968.41;5033015;28;20356;-62
2022/04/10 08:20:35;;;;;;;4.95;1.60;;;;;;;-144.64;100.00;62968.41;5019713;28;20124;-61
2022/04/10 08:23:00;;;;;;;6.15;1.90;;;;;;;-144.64;100.00;62968.41;5026540;28;20048;-61
2022/04/10 08:25:27;;;;;;;6.35;1.67;;;;;;;-144.64;100.00;62968.41;5025144;28;20037;-61
2022/04/10 08:27:53;;;;;;;6.20;1.75;;;;;;;-144.64;100.00;62968.41;5037254;28;20079;-61
2022/04/10 08:30:18;;;;;;;9.88;2.00;;;;;;;-144.64;100.00;62968.41;5018698;28;20273;-62
2022/04/10 08:32:44;;;;;;;7.65;1.63;;;;;;;-144.64;100.00;62968.41;5019237;28;20033;-62
2022/04/10 08:35:11;;;;;;;4.68;1.65;;;;;;;-144.64;100.00;62968.41;5035720;28;20489;-61
2022/04/10 08:37:37;;;;;;;6.05;1.40;;;;;;;-144.64;100.00;62968.41;5025139;28;20139;-61
2022/04/10 08:40:04;;;;;;;9.27;1.60;;;;;;;-144.64;100.00;62968.41;5020505;28;20038;-61
2022/04/10 08:42:30;;;;;;;4.15;1.20;;;;;;;-144.64;100.00;62968.41;5033274;28;20049;-61
2022/04/10 08:44:56;;;;;;;5.28;1.27;;;;;;;-144.64;100.00;62968.41;5016862;28;20497;-61
2022/04/10 08:47:22;;;;;;;5.38;1.15;;;;;;;-144.64;100.00;62968.41;5016404;28;20045;-61
2022/04/10 08:49:48;;;;;;;9.60;1.25;;;;;;;-144.64;100.00;62968.41;5014680;28;20042;-61
2022/04/10 08:52:18;;;;;;;6.30;1.33;;;;;;;-144.64;100.00;62968.41;5015026;28;20065;-61
2022/04/10 08:54:45;;;;;;;7.30;1.30;;;;;;;-144.64;100.00;62968.41;5020159;28;20504;-61
2022/04/10 08:57:12;;;;;;;6.50;1.48;;;;;;;-144.64;100.00;62968.41;5029399;28;20963;-62
2022/04/10 08:59:38;;;;;;;10.05;1.30;;;;;;;-144.64;100.00;62968.41;5027699;28;20037;-61
2022/04/10 09:02:03;;;;;;;7.40;1.45;;;;;;;-144.64;100.00;62968.41;5022472;28;20045;-61
2022/04/10 09:04:29;;;;;;;4.95;1.63;;;;;;;-144.64;100.00;62968.41;5031919;28;20529;-61
2022/04/10 09:07:00;;;;;;;6.65;1.55;;;;;;;-144.64;100.00;62968.41;5016191;28;20045;-61
2022/04/10 09:09:26;;;;;;;7.10;1.35;;;;;;;-144.64;100.00;62968.41;5024821;28;20037;-61
2022/04/10 09:11:53;;;;;;;6.75;1.48;;;;;;;-144.64;100.00;62968.41;5037842;28;20029;-61
2022/04/10 09:14:34;;;;;;;5.15;1.13;;;;;;;-144.64;100.00;62968.41;5031717;28;20033;-62
2022/04/10 09:17:10;;;;;;;2.17;1.20;;;;;;;-144.64;100.00;62968.41;5008571;28;20077;-62
2022/04/10 09:19:36;;;;;;;6.07;1.50;;;;;;;-144.64;100.00;62968.41;5040608;28;20045;-62
2022/04/10 09:22:24;;;;;;;6.10;1.73;;;;;;;-144.64;100.00;62968.41;5035694;28;20041;-62
2022/04/10 09:25:11;;;;;;;7.07;1.58;;;;;;;-144.64;100.00;62968.41;4995672;28;20184;-61
2022/04/10 09:27:45;;;;;;;3.67;1.15;;;;;;;-144.64;100.00;62968.41;4996850;28;20041;-62
2022/04/10 09:30:13;;;;;;;6.50;1.17;;;;;;;-144.64;100.00;62968.41;5026414;28;20429;-60
2022/04/10 09:32:44;;;;;;;6.93;1.50;;;;;;;-144.64;100.00;62968.41;5016925;28;20045;-60
2022/04/10 09:35:12;;;;;;;4.95;1.33;;;;;;;-144.64;100.00;62968.41;5029114;28;20077;-60
2022/04/10 09:37:49;;;;;;;5.80;1.35;;;;;;;-144.64;100.00;62968.41;5014993;28;20037;-60
2022/04/10 09:40:35;;;;;;;3.30;1.10;;;;;;;10.29;53.84;102050.69;5031392;28;20045;-61
2022/04/10 09:43:06;;;;;;;5.93;1.10;;;;;;;-144.64;100.00;62968.41;4995832;28;20045;-61
2022/04/10 09:45:42;;;;;;;5.32;1.42;;;;;;;10.17;51.87;102055.63;5010100;28;20116;-61
2022/04/10 09:48:21;;;;;;;5.18;1.60;;;;;;;-144.64;100.00;62968.41;5030233;28;20048;-61
2022/04/10 09:50:54;;;;;;;10.63;1.77;;;;;;;10.67;51.13;102048.16;5018947;28;20037;-61
2022/04/10 09:53:21;;;;;;;4.55;1.05;;;;;;;10.09;50.24;102047.94;5027670;28;20037;-61
2022/04/10 09:56:04;;;;;;;3.88;1.00;;;;;;;10.48;50.52;102048.09;5024758;28;20764;-60
2022/04/10 09:58:31;;;;;;;4.82;1.08;;;;;;;10.33;46.97;102046.94;5031643;28;20045;-61
2022/04/10 10:00:58;;;;;;;1.60;0.95;;;;;;;10.67;50.58;102045.47;5013723;28;20033;-61
2022/04/10 10:03:25;;;;;;;4.22;1.10;;;;;;;11.05;48.82;102048.25;5022484;28;20068;-61
2022/04/10 10:05:52;;;;;;;3.40;1.20;;;;;;;11.43;49.62;102048.22;5024241;28;20037;-61
2022/04/10 10:08:18;;;;;;;3.50;1.10;;;;;;;10.70;50.19;102039.16;5031704;28;20048;-60
2022/04/10 10:10:44;;;;;;;6.30;0.90;;;;;;;10.40;47.04;102044.03;5019416;28;20115;-60
2022/04/10 10:13:12;;;;;;;4.97;1.08;;;;;;;10.31;51.06;102045.28;5027107;28;20478;-61
2022/04/10 10:15:38;;;;;;;3.40;0.95;;;;;;;9.95;44.75;102056.53;5004900;28;20683;-60
2022/04/10 10:18:05;;;;;;;4.50;0.73;;;;;;;10.50;46.04;102045.38;5029980;28;20065;-61
2022/04/10 10:20:32;;;;;;;1.55;0.98;;;;;;;11.23;46.30;102035.81;5016597;28;20049;-60
2022/04/10 10:23:01;;;;;;;3.70;0.90;;;;;;;11.49;45.64;102042.59;5033129;28;20793;-60
2022/04/10 10:26:03;;;;;;;3.78;0.85;;;;;;;11.49;44.84;102040.78;5038328;28;20048;-60
2022/04/10 10:28:56;;;;;;;6.32;1.10;;;;;;;11.47;44.29;102045.34;5035977;28;20215;-60
2022/04/10 10:31:39;;;;;;;5.80;1.05;;;;;;;11.30;42.62;102045.28;5029395;28;20033;-61
2022/04/10 10:34:07;;;;;;;4.10;1.35;;;;;;;12.52;46.17;102035.69;5031953;28;20057;-60
2022/04/10 10:36:33;;;;;;;4.15;1.50;;;;;;;11.90;44.02;102038.81;5021323;28;20184;-61
2022/04/10 10:38:59;;;;;;;6.20;1.38;;;;;;;11.31;45.29;102047.88;5022957;28;20181;-61
2022/04/10 10:41:25;;;;;;;4.72;1.17;;;;;;;10.84;45.92;102040.28;5027009;28;20344;-60
2022/04/10 10:43:51;;;;;;;7.55;1.67;;;;;;;10.58;48.11;102043.22;5045893;28;20037;-61
2022/04/10 10:46:32;;;;;;;4.38;1.00;;;;;;;10.61;47.22;102041.28;5022311;28;20037;-61
2022/04/10 10:49:14;;;;;;;5.88;0.75;;;;;;;10.71;46.93;102043.56;5019126;28;20068;-60
2022/04/10 10:51:45;;;;;;;7.10;2.00;;;;;;;10.33;45.65;102049.63;5019655;28;20068;-61
2022/04/10 10:54:34;;;;;;;6.03;1.20;;;;;;;11.37;44.09;102049.38;5018736;28;20045;-60
2022/04/10 10:57:38;;;;;;;2.60;0.80;;;;;;;11.85;44.83;102048.00;5007073;28;20053;-60
2022/04/10 11:00:04;;;;;;;1.65;0.80;;;;;;;11.72;41.71;102045.03;5023776;28;20578;-60
2022/04/10 11:02:36;;;;;;;2.78;0.88;;;;;;;12.36;43.45;102039.16;5036129;28;20037;-60
2022/04/10 11:05:27;;;;;;;2.55;0.95;;;;;;;11.64;44.21;102047.19;5034245;28;20045;-61
2022/04/10 11:08:10;;;;;;;3.30;1.27;;;;;;;10.89;46.46;102054.28;5031505;28;20048;-60
2022/04/10 11:10:50;;;;;;;;;;;;;;;-144.64;100.00;62968.41;5037646;28;20033;-60
2022/04/10 11:13:16;;;;;;;3.75;1.05;;;;;;;10.61;44.43;102041.28;5025523;28;20284;-60
2022/04/10 11:15:49;;;;;;;6.15;1.00;;;;;;;10.93;48.01;102052.31;5027761;28;20053;-60
2022/04/10 11:18:23;;;;;;;4.57;0.95;;;;;;;-144.64;100.00;62968.41;5018598;28;20052;-60
2022/04/10 11:21:14;;;;;;;5.15;1.30;;;;;;;-144.64;100.00;62968.41;5022679;28;20135;-60